sensor_id;sensor_type;location;lat;lon;timestamp;P1;durP1;ratioP1;P2;durP2;ratioP2
5702;SDS011;2876;51.738;10.050;2023-01-23T00:00:55;10.67;;;6.10;;
5702;SDS011;2876;51.738;10.050;2023-01-23T00:06:58;9.53;;;6.37;;
5702;SDS011;2876;51.738;10.050;2023-01-23T00:13:00;8.83;;;6.93;;
5702;SDS011;2876;51.738;10.050;2023-01-23T00:19:02;10.30;;;6.50;;
5702;SDS011;2876;51.738;10.050;2023-01-23T00:25:04;10.13;;;7.07;;
5702;SDS011;2876;51.738;10.050;2023-01-23T00:31:08;13.57;;;8.23;;
5702;SDS011;2876;51.738;10.050;2023-01-23T00:37:16;13.87;;;9.23;;
5702;SDS011;2876;51.738;10.050;2023-01-23T00:43:18;12.97;;;8.93;;
5702;SDS011;2876;51.738;10.050;2023-01-23T00:49:21;16.90;;;11.33;;
5702;SDS011;2876;51.738;10.050;2023-01-23T00:55:24;18.43;;;11.70;;
5702;SDS011;2876;51.738;10.050;2023-01-23T01:01:26;22.57;;;11.67;;
5702;SDS011;2876;51.738;10.050;2023-01-23T01:07:31;22.87;;;12.70;;
5702;SDS011;2876;51.738;10.050;2023-01-23T01:13:33;20.73;;;12.13;;
5702;SDS011;2876;51.738;10.050;2023-01-23T01:19:36;22.50;;;13.17;;
5702;SDS011;2876;51.738;10.050;2023-01-23T01:25:38;21.43;;;12.93;;
5702;SDS011;2876;51.738;10.050;2023-01-23T01:31:40;20.40;;;12.33;;
5702;SDS011;2876;51.738;10.050;2023-01-23T01:37:42;17.27;;;11.20;;
5702;SDS011;2876;51.738;10.050;2023-01-23T01:43:45;15.57;;;10.07;;
5702;SDS011;2876;51.738;10.050;2023-01-23T01:49:47;16.27;;;11.07;;
5702;SDS011;2876;51.738;10.050;2023-01-23T01:55:53;13.93;;;9.83;;
5702;SDS011;2876;51.738;10.050;2023-01-23T02:02:01;13.10;;;9.10;;
5702;SDS011;2876;51.738;10.050;2023-01-23T02:14:35;13.30;;;8.87;;
5702;SDS011;2876;51.738;10.050;2023-01-23T02:20:37;12.57;;;7.73;;
5702;SDS011;2876;51.738;10.050;2023-01-23T02:26:40;12.57;;;9.20;;
5702;SDS011;2876;51.738;10.050;2023-01-23T02:32:44;11.97;;;8.53;;
5702;SDS011;2876;51.738;10.050;2023-01-23T02:38:52;12.63;;;8.87;;
5702;SDS011;2876;51.738;10.050;2023-01-23T02:45:14;12.20;;;8.20;;
5702;SDS011;2876;51.738;10.050;2023-01-23T02:51:16;10.73;;;7.10;;
5702;SDS011;2876;51.738;10.050;2023-01-23T02:57:18;14.47;;;9.30;;
5702;SDS011;2876;51.738;10.050;2023-01-23T03:03:20;11.17;;;7.67;;
5702;SDS011;2876;51.738;10.050;2023-01-23T03:09:23;10.87;;;7.20;;
5702;SDS011;2876;51.738;10.050;2023-01-23T03:15:25;12.23;;;6.80;;
5702;SDS011;2876;51.738;10.050;2023-01-23T03:21:27;10.37;;;6.80;;
5702;SDS011;2876;51.738;10.050;2023-01-23T03:27:29;9.27;;;5.93;;
5702;SDS011;2876;51.738;10.050;2023-01-23T03:33:32;8.27;;;6.00;;
5702;SDS011;2876;51.738;10.050;2023-01-23T03:39:34;11.43;;;5.93;;
5702;SDS011;2876;51.738;10.050;2023-01-23T03:45:55;9.83;;;6.33;;
5702;SDS011;2876;51.738;10.050;2023-01-23T03:51:57;7.57;;;5.53;;
5702;SDS011;2876;51.738;10.050;2023-01-23T03:57:59;7.50;;;5.37;;
5702;SDS011;2876;51.738;10.050;2023-01-23T04:04:01;10.17;;;6.47;;
5702;SDS011;2876;51.738;10.050;2023-01-23T04:10:04;8.23;;;5.83;;
5702;SDS011;2876;51.738;10.050;2023-01-23T04:16:06;9.90;;;6.53;;
5702;SDS011;2876;51.738;10.050;2023-01-23T04:22:08;11.23;;;7.20;;
5702;SDS011;2876;51.738;10.050;2023-01-23T04:28:10;11.90;;;6.10;;
5702;SDS011;2876;51.738;10.050;2023-01-23T04:34:13;10.10;;;6.20;;
5702;SDS011;2876;51.738;10.050;2023-01-23T04:40:15;9.43;;;6.83;;
5702;SDS011;2876;51.738;10.050;2023-01-23T04:46:17;14.67;;;7.17;;
5702;SDS011;2876;51.738;10.050;2023-01-23T04:52:19;10.77;;;6.17;;
5702;SDS011;2876;51.738;10.050;2023-01-23T04:58:21;9.60;;;6.60;;
5702;SDS011;2876;51.738;10.050;2023-01-23T05:04:23;13.03;;;7.10;;
5702;SDS011;2876;51.738;10.050;2023-01-23T05:10:25;10.70;;;7.03;;
5702;SDS011;2876;51.738;10.050;2023-01-23T05:16:27;13.33;;;7.10;;
5702;SDS011;2876;51.738;10.050;2023-01-23T05:22:29;10.93;;;7.20;;
5702;SDS011;2876;51.738;10.050;2023-01-23T05:28:31;12.70;;;7.97;;
5702;SDS011;2876;51.738;10.050;2023-01-23T05:34:33;10.33;;;6.60;;
5702;SDS011;2876;51.738;10.050;2023-01-23T05:40:35;10.43;;;6.60;;
5702;SDS011;2876;51.738;10.050;2023-01-23T05:46:37;11.77;;;7.53;;
5702;SDS011;2876;51.738;10.050;2023-01-23T05:52:39;10.30;;;6.47;;
5702;SDS011;2876;51.738;10.050;2023-01-23T05:58:41;11.70;;;7.17;;
5702;SDS011;2876;51.738;10.050;2023-01-23T06:04:45;12.33;;;7.67;;
5702;SDS011;2876;51.738;10.050;2023-01-23T06:10:49;12.80;;;7.53;;
5702;SDS011;2876;51.738;10.050;2023-01-23T06:16:51;11.30;;;7.47;;
5702;SDS011;2876;51.738;10.050;2023-01-23T06:22:53;12.03;;;6.93;;
5702;SDS011;2876;51.738;10.050;2023-01-23T06:28:55;9.40;;;6.00;;
5702;SDS011;2876;51.738;10.050;2023-01-23T06:34:57;12.40;;;7.63;;
5702;SDS011;2876;51.738;10.050;2023-01-23T06:40:59;14.53;;;9.07;;
5702;SDS011;2876;51.738;10.050;2023-01-23T06:47:01;14.83;;;7.47;;
5702;SDS011;2876;51.738;10.050;2023-01-23T06:53:03;12.30;;;8.37;;
5702;SDS011;2876;51.738;10.050;2023-01-23T06:59:05;15.27;;;9.63;;
5702;SDS011;2876;51.738;10.050;2023-01-23T07:05:07;17.50;;;9.53;;
5702;SDS011;2876;51.738;10.050;2023-01-23T07:11:09;15.50;;;10.10;;
5702;SDS011;2876;51.738;10.050;2023-01-23T07:17:12;14.73;;;9.37;;
5702;SDS011;2876;51.738;10.050;2023-01-23T07:23:14;15.53;;;9.03;;
5702;SDS011;2876;51.738;10.050;2023-01-23T07:29:16;19.37;;;12.20;;
5702;SDS011;2876;51.738;10.050;2023-01-23T07:35:18;30.93;;;16.10;;
5702;SDS011;2876;51.738;10.050;2023-01-23T07:41:21;21.50;;;13.60;;
5702;SDS011;2876;51.738;10.050;2023-01-23T07:47:23;22.23;;;13.83;;
5702;SDS011;2876;51.738;10.050;2023-01-23T07:53:25;20.70;;;13.10;;
5702;SDS011;2876;51.738;10.050;2023-01-23T07:59:27;21.83;;;11.20;;
5702;SDS011;2876;51.738;10.050;2023-01-23T08:05:29;17.43;;;10.90;;
5702;SDS011;2876;51.738;10.050;2023-01-23T08:11:31;13.27;;;8.80;;
5702;SDS011;2876;51.738;10.050;2023-01-23T08:17:34;18.37;;;8.70;;
5702;SDS011;2876;51.738;10.050;2023-01-23T08:23:37;16.93;;;10.13;;
5702;SDS011;2876;51.738;10.050;2023-01-23T08:29:41;19.50;;;10.93;;
5702;SDS011;2876;51.738;10.050;2023-01-23T08:35:49;19.30;;;11.80;;
5702;SDS011;2876;51.738;10.050;2023-01-23T08:41:53;18.97;;;11.90;;
5702;SDS011;2876;51.738;10.050;2023-01-23T08:47:55;17.00;;;10.20;;
5702;SDS011;2876;51.738;10.050;2023-01-23T08:53:57;17.67;;;10.60;;
5702;SDS011;2876;51.738;10.050;2023-01-23T08:59:59;18.90;;;10.17;;
5702;SDS011;2876;51.738;10.050;2023-01-23T09:06:01;18.80;;;11.27;;
5702;SDS011;2876;51.738;10.050;2023-01-23T09:12:03;18.87;;;9.97;;
5702;SDS011;2876;51.738;10.050;2023-01-23T09:18:05;16.20;;;10.03;;
5702;SDS011;2876;51.738;10.050;2023-01-23T09:24:07;14.00;;;9.03;;
5702;SDS011;2876;51.738;10.050;2023-01-23T09:30:09;15.30;;;9.60;;
5702;SDS011;2876;51.738;10.050;2023-01-23T09:36:12;16.10;;;9.80;;
5702;SDS011;2876;51.738;10.050;2023-01-23T09:42:22;15.13;;;9.53;;
5702;SDS011;2876;51.738;10.050;2023-01-23T10:00:50;18.10;;;10.47;;
5702;SDS011;2876;51.738;10.050;2023-01-23T10:13:10;15.40;;;9.23;;
5702;SDS011;2876;51.738;10.050;2023-01-23T10:19:22;17.27;;;10.20;;
5702;SDS011;2876;51.738;10.050;2023-01-23T10:25:57;14.73;;;9.13;;
5702;SDS011;2876;51.738;10.050;2023-01-23T10:32:03;16.20;;;9.10;;
5702;SDS011;2876;51.738;10.050;2023-01-23T10:44:31;13.23;;;8.73;;
5702;SDS011;2876;51.738;10.050;2023-01-23T10:50:34;17.40;;;9.73;;
5702;SDS011;2876;51.738;10.050;2023-01-23T10:56:53;17.43;;;10.10;;
5702;SDS011;2876;51.738;10.050;2023-01-23T11:03:31;14.70;;;9.30;;
5702;SDS011;2876;51.738;10.050;2023-01-23T11:09:55;19.13;;;9.93;;
5702;SDS011;2876;51.738;10.050;2023-01-23T11:16:21;16.60;;;10.30;;
5702;SDS011;2876;51.738;10.050;2023-01-23T11:28:45;16.20;;;9.97;;
5702;SDS011;2876;51.738;10.050;2023-01-23T11:34:49;19.13;;;9.27;;
5702;SDS011;2876;51.738;10.050;2023-01-23T11:41:03;18.67;;;10.40;;
5702;SDS011;2876;51.738;10.050;2023-01-23T11:47:18;18.60;;;10.87;;
5702;SDS011;2876;51.738;10.050;2023-01-23T12:00:37;18.80;;;10.73;;
5702;SDS011;2876;51.738;10.050;2023-01-23T12:26:11;22.50;;;11.70;;
5702;SDS011;2876;51.738;10.050;2023-01-23T12:45:32;20.90;;;11.57;;
5702;SDS011;2876;51.738;10.050;2023-01-23T12:51:38;19.80;;;11.40;;
5702;SDS011;2876;51.738;10.050;2023-01-23T12:57:44;21.57;;;12.03;;
5702;SDS011;2876;51.738;10.050;2023-01-23T13:04:11;21.07;;;10.80;;
5702;SDS011;2876;51.738;10.050;2023-01-23T13:10:23;21.77;;;10.80;;
5702;SDS011;2876;51.738;10.050;2023-01-23T13:17:22;21.40;;;11.13;;
5702;SDS011;2876;51.738;10.050;2023-01-23T13:23:32;18.63;;;11.50;;
5702;SDS011;2876;51.738;10.050;2023-01-23T13:29:45;19.57;;;11.10;;
5702;SDS011;2876;51.738;10.050;2023-01-23T13:35:50;18.03;;;10.47;;
5702;SDS011;2876;51.738;10.050;2023-01-23T13:48:34;19.97;;;11.67;;
5702;SDS011;2876;51.738;10.050;2023-01-23T13:55:22;19.37;;;10.47;;
5702;SDS011;2876;51.738;10.050;2023-01-23T14:02:03;24.47;;;11.40;;
5702;SDS011;2876;51.738;10.050;2023-01-23T14:09:02;18.53;;;10.27;;
5702;SDS011;2876;51.738;10.050;2023-01-23T14:15:57;24.40;;;10.90;;
5702;SDS011;2876;51.738;10.050;2023-01-23T14:22:28;21.47;;;11.60;;
5702;SDS011;2876;51.738;10.050;2023-01-23T14:28:31;21.57;;;11.10;;
5702;SDS011;2876;51.738;10.050;2023-01-23T14:34:37;22.00;;;11.97;;
5702;SDS011;2876;51.738;10.050;2023-01-23T14:40:40;26.80;;;11.77;;
5702;SDS011;2876;51.738;10.050;2023-01-23T14:46:52;25.70;;;11.43;;
5702;SDS011;2876;51.738;10.050;2023-01-23T14:53:04;25.53;;;10.87;;
5702;SDS011;2876;51.738;10.050;2023-01-23T14:59:19;22.33;;;11.63;;
5702;SDS011;2876;51.738;10.050;2023-01-23T15:05:30;24.77;;;12.27;;
5702;SDS011;2876;51.738;10.050;2023-01-23T15:11:33;31.20;;;13.60;;
5702;SDS011;2876;51.738;10.050;2023-01-23T15:17:35;23.60;;;12.10;;
5702;SDS011;2876;51.738;10.050;2023-01-23T15:23:38;22.60;;;10.70;;
5702;SDS011;2876;51.738;10.050;2023-01-23T15:29:41;25.80;;;12.90;;
5702;SDS011;2876;51.738;10.050;2023-01-23T15:35:44;26.10;;;13.57;;
5702;SDS011;2876;51.738;10.050;2023-01-23T15:41:53;28.33;;;13.00;;
5702;SDS011;2876;51.738;10.050;2023-01-23T15:47:55;26.83;;;14.63;;
5702;SDS011;2876;51.738;10.050;2023-01-23T15:53:57;26.40;;;12.57;;
5702;SDS011;2876;51.738;10.050;2023-01-23T15:59:59;29.57;;;11.73;;
5702;SDS011;2876;51.738;10.050;2023-01-23T16:06:01;55.03;;;30.63;;
5702;SDS011;2876;51.738;10.050;2023-01-23T16:12:08;26.63;;;13.77;;
5702;SDS011;2876;51.738;10.050;2023-01-23T16:18:17;29.67;;;12.53;;
5702;SDS011;2876;51.738;10.050;2023-01-23T16:24:20;28.77;;;12.90;;
5702;SDS011;2876;51.738;10.050;2023-01-23T16:30:24;32.83;;;15.67;;
5702;SDS011;2876;51.738;10.050;2023-01-23T16:36:27;25.00;;;11.87;;
5702;SDS011;2876;51.738;10.050;2023-01-23T16:42:30;22.70;;;12.40;;
5702;SDS011;2876;51.738;10.050;2023-01-23T16:48:32;22.23;;;10.73;;
5702;SDS011;2876;51.738;10.050;2023-01-23T16:54:34;19.10;;;10.13;;
5702;SDS011;2876;51.738;10.050;2023-01-23T17:00:36;18.73;;;10.17;;
5702;SDS011;2876;51.738;10.050;2023-01-23T17:06:40;20.00;;;11.47;;
5702;SDS011;2876;51.738;10.050;2023-01-23T17:12:43;52.73;;;27.30;;
5702;SDS011;2876;51.738;10.050;2023-01-23T17:18:45;23.90;;;12.27;;
5702;SDS011;2876;51.738;10.050;2023-01-23T17:24:47;19.40;;;11.27;;
5702;SDS011;2876;51.738;10.050;2023-01-23T17:30:50;17.53;;;10.30;;
5702;SDS011;2876;51.738;10.050;2023-01-23T17:36:55;18.47;;;10.30;;
5702;SDS011;2876;51.738;10.050;2023-01-23T17:42:57;16.97;;;8.93;;
5702;SDS011;2876;51.738;10.050;2023-01-23T17:48:59;15.43;;;9.30;;
5702;SDS011;2876;51.738;10.050;2023-01-23T17:55:01;14.73;;;8.20;;
5702;SDS011;2876;51.738;10.050;2023-01-23T18:01:04;11.03;;;7.00;;
5702;SDS011;2876;51.738;10.050;2023-01-23T18:07:22;11.27;;;7.33;;
5702;SDS011;2876;51.738;10.050;2023-01-23T18:13:40;11.03;;;6.60;;
5702;SDS011;2876;51.738;10.050;2023-01-23T18:19:47;13.60;;;8.80;;
5702;SDS011;2876;51.738;10.050;2023-01-23T18:25:57;15.50;;;8.20;;
5702;SDS011;2876;51.738;10.050;2023-01-23T18:32:43;15.30;;;7.90;;
5702;SDS011;2876;51.738;10.050;2023-01-23T18:45:24;17.20;;;9.20;;
5702;SDS011;2876;51.738;10.050;2023-01-23T18:51:30;11.30;;;7.57;;
5702;SDS011;2876;51.738;10.050;2023-01-23T19:04:15;13.97;;;8.13;;
5702;SDS011;2876;51.738;10.050;2023-01-23T19:10:19;17.73;;;10.43;;
5702;SDS011;2876;51.738;10.050;2023-01-23T19:16:29;15.13;;;8.80;;
5702;SDS011;2876;51.738;10.050;2023-01-23T19:29:16;13.60;;;8.53;;
5702;SDS011;2876;51.738;10.050;2023-01-23T19:35:22;16.70;;;9.40;;
5702;SDS011;2876;51.738;10.050;2023-01-23T19:41:25;15.13;;;8.53;;
5702;SDS011;2876;51.738;10.050;2023-01-23T19:47:49;14.40;;;8.83;;
5702;SDS011;2876;51.738;10.050;2023-01-23T19:53:53;17.73;;;9.10;;
5702;SDS011;2876;51.738;10.050;2023-01-23T19:59:55;14.63;;;8.67;;
5702;SDS011;2876;51.738;10.050;2023-01-23T20:05:57;21.47;;;13.60;;
5702;SDS011;2876;51.738;10.050;2023-01-23T20:11:59;14.40;;;7.17;;
5702;SDS011;2876;51.738;10.050;2023-01-23T20:18:01;13.20;;;8.50;;
5702;SDS011;2876;51.738;10.050;2023-01-23T20:24:03;13.53;;;8.20;;
5702;SDS011;2876;51.738;10.050;2023-01-23T20:30:10;10.07;;;7.63;;
5702;SDS011;2876;51.738;10.050;2023-01-23T20:36:16;12.73;;;7.63;;
5702;SDS011;2876;51.738;10.050;2023-01-23T20:42:18;11.30;;;7.30;;
5702;SDS011;2876;51.738;10.050;2023-01-23T20:48:20;12.13;;;7.17;;
5702;SDS011;2876;51.738;10.050;2023-01-23T20:54:22;12.57;;;7.90;;
5702;SDS011;2876;51.738;10.050;2023-01-23T21:00:24;13.43;;;8.73;;
5702;SDS011;2876;51.738;10.050;2023-01-23T21:06:26;30.50;;;18.90;;
5702;SDS011;2876;51.738;10.050;2023-01-23T21:12:28;17.10;;;7.80;;
5702;SDS011;2876;51.738;10.050;2023-01-23T21:18:31;11.93;;;7.23;;
5702;SDS011;2876;51.738;10.050;2023-01-23T21:24:37;14.00;;;8.70;;
5702;SDS011;2876;51.738;10.050;2023-01-23T21:30:39;12.17;;;8.13;;
5702;SDS011;2876;51.738;10.050;2023-01-23T21:36:41;10.07;;;7.03;;
5702;SDS011;2876;51.738;10.050;2023-01-23T21:42:44;16.47;;;9.40;;
5702;SDS011;2876;51.738;10.050;2023-01-23T21:48:46;11.20;;;7.20;;
5702;SDS011;2876;51.738;10.050;2023-01-23T21:54:48;10.30;;;6.63;;
5702;SDS011;2876;51.738;10.050;2023-01-23T22:00:56;10.73;;;7.20;;
5702;SDS011;2876;51.738;10.050;2023-01-23T22:07:26;13.60;;;8.47;;
5702;SDS011;2876;51.738;10.050;2023-01-23T22:13:28;17.00;;;10.23;;
5702;SDS011;2876;51.738;10.050;2023-01-23T22:19:30;11.10;;;6.70;;
5702;SDS011;2876;51.738;10.050;2023-01-23T22:25:32;9.77;;;6.63;;
5702;SDS011;2876;51.738;10.050;2023-01-23T22:31:34;7.17;;;5.80;;
5702;SDS011;2876;51.738;10.050;2023-01-23T22:37:36;10.87;;;6.77;;
5702;SDS011;2876;51.738;10.050;2023-01-23T22:43:40;9.10;;;6.40;;
5702;SDS011;2876;51.738;10.050;2023-01-23T22:49:42;8.40;;;5.80;;
5702;SDS011;2876;51.738;10.050;2023-01-23T22:55:44;8.80;;;5.67;;
5702;SDS011;2876;51.738;10.050;2023-01-23T23:01:46;6.70;;;4.73;;
5702;SDS011;2876;51.738;10.050;2023-01-23T23:07:47;7.93;;;5.00;;
5702;SDS011;2876;51.738;10.050;2023-01-23T23:13:50;8.43;;;5.67;;
5702;SDS011;2876;51.738;10.050;2023-01-23T23:19:52;8.93;;;5.10;;
5702;SDS011;2876;51.738;10.050;2023-01-23T23:25:54;7.20;;;5.27;;
5702;SDS011;2876;51.738;10.050;2023-01-23T23:31:57;8.23;;;5.53;;
5702;SDS011;2876;51.738;10.050;2023-01-23T23:37:59;8.13;;;6.00;;
5702;SDS011;2876;51.738;10.050;2023-01-23T23:44:01;6.83;;;4.30;;
5702;SDS011;2876;51.738;10.050;2023-01-23T23:50:03;6.00;;;4.47;;
5702;SDS011;2876;51.738;10.050;2023-01-23T23:56:06;5.23;;;3.50;;
